Time;durP1;ratioP1;P1;durP2;ratioP2;P2;SDS_P1;SDS_P2;PMS_P1;PMS_P2;Temp;Humidity;BMP_temperature;BMP_pressure;BME280_temperature;BME280_humidity;BME280_pressure;Samples;Min_cycle;Max_cycle;Signal;HPM_P1;HPM_P2
2022/12/02 00:01:21;;;;;;;;;11.75;9.00;;;;;20.88;44.46;102416.72;5018162;28;46599;-70
2022/12/02 00:03:47;;;;;;;;;13.75;11.00;;;;;20.85;44.36;102415.19;5018728;28;45397;-70
2022/12/02 00:06:15;;;;;;;;;7.00;7.00;;;;;20.87;44.56;102410.59;5018681;28;45420;-70
2022/12/02 00:08:41;;;;;;;;;12.25;12.00;;;;;20.88;44.13;102419.38;5018524;28;45421;-70
2022/12/02 00:11:24;;;;;;;;;11.50;10.25;;;;;20.87;44.45;102418.53;5018222;28;47471;-70
2022/12/02 00:13:49;;;;;;;;;10.75;8.00;;;;;20.87;44.15;102418.53;5018512;28;45423;-70
2022/12/02 00:16:19;;;;;;;;;11.75;10.50;;;;;20.80;44.39;102398.88;5018250;28;45436;-71
2022/12/02 00:18:45;;;;;;;;;7.75;7.75;;;;;20.87;44.16;102412.44;5018281;28;45288;-70
2022/12/02 00:21:10;;;;;;;;;9.00;9.00;;;;;20.86;44.42;102414.22;5018206;28;45530;-70
2022/12/02 00:23:35;;;;;;;;;10.25;9.50;;;;;20.85;44.12;102405.44;5018367;28;45430;-70
2022/12/02 00:26:01;;;;;;;;;9.75;8.75;;;;;20.83;44.04;102399.47;5018607;28;45324;-70
2022/12/02 00:28:26;;;;;;;;;10.00;9.00;;;;;20.84;44.36;102397.66;5018327;28;45261;-70
2022/12/02 00:30:51;;;;;;;;;11.50;9.50;;;;;20.84;44.31;102379.16;5017873;28;45463;-70
2022/12/02 00:33:17;;;;;;;;;9.75;9.75;;;;;20.80;43.99;102375.91;5017967;28;50724;-70
2022/12/02 00:35:43;;;;;;;;;8.50;7.50;;;;;20.84;44.15;102384.44;5018384;28;45292;-70
2022/12/02 00:38:08;;;;;;;;;10.50;9.50;;;;;20.83;44.18;102388.88;5018191;28;45369;-71
2022/12/02 00:40:33;;;;;;;;;10.50;10.50;;;;;20.83;43.87;102382.75;5018013;28;46587;-70
2022/12/02 00:46:30;;;;;;;;;8.50;7.50;;;;;20.80;43.80;102383.84;5018237;28;45400;-70
2022/12/02 00:48:29;;;;;;;;;8.00;8.00;;;;;20.81;43.91;102374.13;5017999;28;45251;-70
2022/12/02 00:50:54;;;;;;;;;7.50;7.50;;;;;20.79;43.87;102374.22;5017807;28;45977;-70
2022/12/02 00:53:20;;;;;;;;;8.75;8.75;;;;;20.79;43.98;102376.88;5000121;28;45435;-70
2022/12/02 00:55:45;;;;;;;;;8.75;6.75;;;;;20.79;43.89;102376.06;5018020;28;45348;-70
2022/12/02 00:58:10;;;;;;;;;9.00;7.75;;;;;20.72;44.08;102355.44;5017968;28;45335;-70
2022/12/02 01:00:36;;;;;;;;;9.00;8.25;;;;;20.79;43.75;102368.94;5016743;28;55437;-70
2022/12/02 01:03:01;;;;;;;;;8.75;8.75;;;;;20.78;43.89;102361.16;5017938;28;45400;-70
2022/12/02 01:05:26;;;;;;;;;9.00;9.00;;;;;20.77;44.09;102360.31;5017752;28;45355;-70
2022/12/02 01:07:52;;;;;;;;;8.50;8.50;;;;;20.79;43.99;102360.19;5017607;28;45427;-70
2022/12/02 01:10:17;;;;;;;;;10.25;9.00;;;;;20.77;43.83;102360.31;5017564;28;45958;-70
2022/12/02 01:12:42;;;;;;;;;8.00;8.00;;;;;20.69;44.06;102342.47;5017545;28;45272;-70
2022/12/02 01:15:09;;;;;;;;;12.25;9.50;;;;;20.79;44.04;102358.34;5017315;28;45316;-70
2022/12/02 01:17:34;;;;;;;;;7.00;7.00;;;;;20.79;43.88;102360.19;5017487;28;45434;-70
2022/12/02 01:19:59;;;;;;;;;8.50;7.25;;;;;20.79;43.63;102353.06;5017087;28;46702;-70
2022/12/02 01:22:24;;;;;;;;;9.50;8.25;;;;;20.78;43.85;102354.06;5017373;28;45365;-70
2022/12/02 01:24:50;;;;;;;;;8.25;6.25;;;;;20.78;43.86;102347.94;5017559;28;45481;-70
2022/12/02 01:27:15;;;;;;;;;10.25;9.75;;;;;20.77;43.66;102344.44;5017507;28;45360;-70
2022/12/02 01:29:41;;;;;;;;;7.75;7.50;;;;;20.77;44.01;102344.44;5016899;28;47292;-70
2022/12/02 01:32:06;;;;;;;;;13.25;10.00;;;;;20.78;43.73;102343.47;5017132;28;45430;-70
2022/12/02 01:34:31;;;;;;;;;10.00;7.00;;;;;20.73;43.94;102337.75;5017378;28;45357;-70
2022/12/02 01:36:56;;;;;;;;;14.25;9.00;;;;;20.71;43.89;102332.59;5017370;28;45427;-70
2022/12/02 01:39:22;;;;;;;;;9.75;8.00;;;;;20.76;43.54;102342.78;5017160;28;45474;-70
2022/12/02 01:41:47;;;;;;;;;7.25;7.00;;;;;20.76;43.52;102341.94;5017013;28;45384;-70
2022/12/02 01:44:13;;;;;;;;;6.00;5.25;;;;;20.76;43.87;102345.44;5016924;28;45353;-70
2022/12/02 01:46:39;;;;;;;;;10.00;7.00;;;;;20.76;43.79;102345.44;5016708;28;46257;-70
2022/12/02 01:49:05;;;;;;;;;9.25;7.50;;;;;20.76;43.89;102345.44;5016920;28;46244;-70
2022/12/02 01:51:30;;;;;;;;;9.75;9.00;;;;;20.70;43.78;102338.88;5016845;28;45368;-71
2022/12/02 01:53:55;;;;;;;;;11.00;9.50;;;;;20.68;43.63;102337.31;4995880;28;45435;-70
2022/12/02 01:56:21;;;;;;;;;10.00;9.00;;;;;20.76;43.74;102347.22;4997132;28;45373;-70
2022/12/02 01:58:46;;;;;;;;;9.75;8.75;;;;;20.75;43.51;102341.09;4996312;28;45374;-70
2022/12/02 02:01:22;;;;;;;;;11.50;8.25;;;;;20.72;43.64;102342.22;4997053;28;45329;-70
2022/12/02 02:03:48;;;;;;;;;9.25;9.00;;;;;20.73;43.47;102351.81;4997155;28;45352;-69
2022/12/02 02:06:13;;;;;;;;;9.75;7.75;;;;;20.71;43.57;102345.81;4996807;28;45320;-70
2022/12/02 02:08:39;;;;;;;;;9.50;7.75;;;;;20.72;43.66;102349.28;4996225;28;45264;-70
2022/12/02 02:11:04;;;;;;;;;1.75;1.25;;;;;20.72;43.38;102346.66;4996912;28;45340;-71
2022/12/02 02:13:29;;;;;;;;;8.75;8.75;;;;;20.67;43.36;102341.78;4996565;28;45472;-70
2022/12/02 02:15:55;;;;;;;;;11.00;8.00;;;;;20.71;43.13;102345.81;4996992;28;45406;-70
2022/12/02 02:18:20;;;;;;;;;11.75;9.00;;;;;20.71;43.41;102351.09;5012249;28;46200;-70
2022/12/02 02:20:46;;;;;;;;;8.00;7.00;;;;;20.70;43.56;102343.31;5016455;28;45349;-70
2022/12/02 02:23:24;;;;;;;;;3.75;2.50;;;;;20.63;43.21;102337.72;5016691;28;45304;-70
2022/12/02 02:25:53;;;;;;;;;9.50;9.50;;;;;20.71;43.43;102345.00;5016698;28;45517;-70
2022/12/02 02:28:20;;;;;;;;;6.50;6.25;;;;;20.68;43.01;102332.03;5015870;28;46145;-70
2022/12/02 02:30:45;;;;;;;;;10.25;9.00;;;;;20.69;43.40;102336.34;5016181;28;45427;-70
2022/12/02 02:33:13;;;;;;;;;6.50;5.50;;;;;20.67;43.05;102330.34;5016351;28;45324;-70
2022/12/02 02:35:41;;;;;;;;;8.75;8.75;;;;;20.72;43.26;102331.63;5016365;28;45331;-70
2022/12/02 02:38:09;;;;;;;;;8.00;8.00;;;;;20.62;43.61;102309.59;5016084;28;47093;-71
2022/12/02 02:40:35;;;;;;;;;11.75;7.75;;;;;20.66;43.38;102310.19;5016077;28;45375;-70
2022/12/02 02:43:02;;;;;;;;;11.25;9.00;;;;;20.71;43.29;102322.00;5015922;28;45295;-70
2022/12/02 02:45:32;;;;;;;;;10.00;9.00;;;;;20.72;43.65;102314.91;5016200;28;45319;-70
2022/12/02 02:47:59;;;;;;;;;8.50;6.75;;;;;20.71;43.39;102292.09;5015867;28;46082;-70
2022/12/02 02:50:25;;;;;;;;;7.00;6.75;;;;;20.70;43.31;102298.34;5016017;28;45320;-70
2022/12/02 02:52:51;;;;;;;;;6.25;5.00;;;;;20.69;43.46;102297.50;5016231;28;45467;-70
2022/12/02 02:55:20;;;;;;;;;9.00;9.00;;;;;20.70;43.39;102298.34;5015629;28;45435;-70
2022/12/02 02:57:46;;;;;;;;;7.75;7.75;;;;;20.59;43.53;102268.41;5015560;28;46992;-70
2022/12/02 03:00:13;;;;;;;;;8.75;8.00;;;;;20.70;43.62;102296.53;5015622;28;45453;-71
2022/12/02 03:02:40;;;;;;;;;7.25;7.25;;;;;20.70;43.42;102290.41;5015977;28;45406;-70
2022/12/02 03:05:06;;;;;;;;;9.00;7.00;;;;;20.68;43.34;102290.56;5015857;28;45253;-71
2022/12/02 03:07:32;;;;;;;;;11.00;9.00;;;;;20.63;43.50;102284.84;5015554;28;45395;-70
2022/12/02 03:09:57;;;;;;;;;11.75;8.00;;;;;20.59;43.35;102270.19;5015390;28;45404;-70
2022/12/02 03:12:23;;;;;;;;;8.00;7.75;;;;;20.67;43.06;102275.66;5015668;28;45467;-70
2022/12/02 03:14:49;;;;;;;;;8.25;5.25;;;;;20.62;42.98;102262.84;4998142;28;45350;-70
2022/12/02 03:17:15;;;;;;;;;8.25;7.75;;;;;20.68;43.32;102273.84;5015286;28;45363;-71
2022/12/02 03:19:42;;;;;;;;;14.00;8.75;;;;;20.68;43.42;102266.75;5014482;28;45421;-70
2022/12/02 03:22:08;;;;;;;;;13.00;9.50;;;;;20.62;43.49;102256.72;5015749;28;45388;-70
2022/12/02 03:24:34;;;;;;;;;8.50;7.75;;;;;20.65;43.04;102256.44;5015243;28;45474;-70
2022/12/02 03:27:00;;;;;;;;;9.50;8.75;;;;;20.65;43.35;102259.09;5015381;28;45937;-70
2022/12/02 03:29:28;;;;;;;;;9.75;8.25;;;;;20.61;43.40;102253.22;5015546;28;45370;-70
2022/12/02 03:31:54;;;;;;;;;7.50;7.50;;;;;20.62;43.09;102252.25;5015474;28;45377;-70
2022/12/02 03:34:20;;;;;;;;;7.75;7.75;;;;;20.65;43.43;102256.44;5015579;28;45479;-70
2022/12/02 03:36:45;;;;;;;;;10.50;7.75;;;;;20.59;43.01;102239.31;5015181;28;46104;-70
2022/12/02 03:39:11;;;;;;;;;8.50;7.75;;;;;20.65;43.08;102242.38;5015146;28;45361;-70
2022/12/02 03:41:37;;;;;;;;;10.25;7.75;;;;;20.58;42.92;102231.53;5015425;28;45383;-70
2022/12/02 03:44:03;;;;;;;;;7.50;7.00;;;;;20.63;42.72;102242.53;5015210;28;45423;-70
2022/12/02 03:46:29;;;;;;;;;9.00;7.25;;;;;20.63;42.74;102243.34;5015092;28;47132;-70
2022/12/02 03:48:56;;;;;;;;;4.25;4.25;;;;;20.64;43.04;102249.47;4997534;28;45404;-70
2022/12/02 03:51:21;;;;;;;;;10.00;8.00;;;;;20.57;42.73;102237.78;4997542;28;45317;-70
2022/12/02 03:53:47;;;;;;;;;10.25;8.25;;;;;20.63;42.99;102240.69;5014753;28;45387;-70
2022/12/02 03:56:12;;;;;;;;;11.00;8.00;;;;;20.63;42.73;102245.19;5015058;28;45959;-70
2022/12/02 03:58:50;;;;;;;;;10.50;6.50;;;;;20.65;43.17;102245.88;5014668;28;45332;-70
2022/12/02 04:01:17;;;;;;;;;8.00;7.00;;;;;20.65;43.04;102248.50;5015153;28;45344;-70
2022/12/02 04:03:42;;;;;;;;;10.00;7.50;;;;;20.66;42.80;102244.06;5015165;28;45292;-70
2022/12/02 04:06:09;;;;;;;;;9.25;8.25;;;;;20.64;42.88;102246.81;5014962;28;46239;-70
2022/12/02 04:08:34;;;;;;;;;8.00;8.00;;;;;20.65;43.05;102245.88;5014568;28;45344;-70
2022/12/02 04:10:59;;;;;;;;;9.00;9.00;;;;;20.65;42.94;102248.50;5015074;28;45726;-70
2022/12/02 04:13:28;;;;;;;;;8.00;8.00;;;;;20.59;42.93;102241.94;5015388;28;45333;-70
2022/12/02 04:15:56;;;;;;;;;7.25;7.25;;;;;20.63;43.13;102237.25;5015238;28;46411;-70
2022/12/02 04:18:42;;;;;;;;;9.75;8.25;;;;;20.64;42.95;102238.91;5014735;28;45309;-69
2022/12/02 04:21:11;;;;;;;;;7.25;7.25;;;;;20.65;42.83;102237.94;5014434;28;45362;-70
2022/12/02 04:23:36;;;;;;;;;6.50;5.25;;;;;20.65;42.86;102237.09;5014705;28;45428;-70
2022/12/02 04:26:02;;;;;;;;;7.75;7.75;;;;;20.64;42.89;102228.31;5014677;28;46167;-69
2022/12/02 04:28:27;;;;;;;;;8.75;8.75;;;;;20.62;43.14;102230.25;5014833;28;45418;-69
2022/12/02 04:30:52;;;;;;;;;6.00;5.00;;;;;20.60;42.73;102225.13;5015140;28;45753;-70
2022/12/02 04:33:18;;;;;;;;;8.25;8.25;;;;;20.63;43.04;102224.81;5018185;28;45388;-69
2022/12/02 04:35:43;;;;;;;;;10.50;7.75;;;;;20.63;42.74;102222.19;5018091;28;48475;-70
2022/12/02 04:38:08;;;;;;;;;8.00;8.00;;;;;20.52;42.76;102203.81;5017760;28;45385;-71
2022/12/02 04:40:34;;;;;;;;;9.50;5.75;;;;;20.60;43.09;102214.53;5018225;28;45701;-71
2022/12/02 04:42:59;;;;;;;;;9.00;6.25;;;;;20.59;42.67;102201.44;5018219;28;45332;-69
2022/12/02 04:45:24;;;;;;;;;10.00;7.25;;;;;20.61;42.89;102207.44;5017563;28;57511;-70
2022/12/02 04:47:50;;;;;;;;;6.25;6.25;;;;;20.62;43.01;102209.09;5018026;28;45380;-70
2022/12/02 04:50:15;;;;;;;;;7.00;7.00;;;;;20.60;42.84;102203.97;5000257;28;45350;-70
2022/12/02 04:52:40;;;;;;;;;8.75;8.75;;;;;20.60;43.06;102206.63;5017497;28;45304;-70
2022/12/02 04:55:06;;;;;;;;;9.50;7.00;;;;;20.60;42.60;102213.72;5017776;28;45409;-70
2022/12/02 04:57:32;;;;;;;;;6.50;6.50;;;;;20.55;42.53;102197.41;5017645;28;45379;-70
2022/12/02 04:59:57;;;;;;;;;5.75;4.75;;;;;20.49;42.67;102194.34;5017808;28;45414;-70
2022/12/02 05:02:22;;;;;;;;;10.25;8.50;;;;;20.59;42.56;102206.72;5017802;28;45485;-69
2022/12/02 05:04:48;;;;;;;;;7.75;7.00;;;;;20.59;42.96;102207.56;5017440;28;48052;-70
2022/12/02 05:07:13;;;;;;;;;7.25;6.25;;;;;20.58;42.78;102203.25;5017388;28;45300;-70
2022/12/02 05:09:38;;;;;;;;;8.25;8.00;;;;;20.59;42.60;102206.72;5017625;28;45298;-70
2022/12/02 05:12:04;;;;;;;;;9.75;7.00;;;;;20.59;42.44;102212.88;5017559;28;45344;-70
2022/12/02 05:14:29;;;;;;;;;7.25;7.00;;;;;20.58;42.83;102208.53;5017127;28;45781;-70
2022/12/02 05:16:54;;;;;;;;;7.75;7.50;;;;;20.54;42.37;102201.88;5017499;28;45510;-70
2022/12/02 05:19:20;;;;;;;;;9.50;8.00;;;;;20.58;42.49;102205.91;5017546;28;45361;-70
2022/12/02 05:21:45;;;;;;;;;9.75;8.00;;;;;20.58;42.56;102211.19;5017163;28;45331;-70
2022/12/02 05:24:11;;;;;;;;;8.25;8.25;;;;;20.59;42.54;102212.03;5017146;28;46999;-70
2022/12/02 05:26:36;;;;;;;;;10.00;8.50;;;;;20.58;42.31;102205.91;5017267;28;45472;-70
2022/12/02 05:29:02;;;;;;;;;8.00;7.00;;;;;20.57;42.36;102204.25;5017597;28;45295;-70
2022/12/02 05:31:27;;;;;;;;;7.75;7.75;;;;;20.57;42.64;102203.41;5017309;28;45643;-69
2022/12/02 05:33:53;;;;;;;;;8.00;8.00;;;;;20.59;42.54;102202.28;5017128;28;45339;-70
2022/12/02 05:36:18;;;;;;;;;7.25;7.25;;;;;20.46;42.57;102183.19;5016830;28;45470;-70
2022/12/02 05:38:43;;;;;;;;;6.50;6.50;;;;;20.60;42.47;102201.31;5017163;28;45424;-70
2022/12/02 05:41:09;;;;;;;;;9.00;7.25;;;;;20.60;42.67;102205.78;5017134;28;45819;-70
2022/12/02 05:43:40;;;;;;;;;8.25;8.25;;;;;20.60;42.77;102203.97;5015980;28;45999;-70
2022/12/02 05:46:14;;;;;;;;;8.25;6.25;;;;;20.59;42.80;102199.66;5017015;28;45446;-70
2022/12/02 05:48:40;;;;;;;;;11.25;8.25;;;;;20.58;42.45;102197.97;5016981;28;45559;-70
2022/12/02 05:51:12;;;;;;;;;10.25;10.00;;;;;20.60;42.54;102193.41;5016732;28;45386;-70
2022/12/02 05:53:39;;;;;;;;;8.00;8.00;;;;;20.59;42.38;102194.34;4995520;28;47252;-71
2022/12/02 05:56:10;;;;;;;;;9.75;7.00;;;;;20.58;42.84;102195.31;4996975;28;45423;-71
2022/12/02 05:58:38;;;;;;;;;8.75;7.75;;;;;20.51;42.58;102194.19;4996883;28;45373;-69
2022/12/02 06:01:18;;;;;;;;;7.00;7.00;;;;;20.58;42.62;102197.97;4996981;28;45531;-71
2022/12/02 06:03:43;;;;;;;;;7.75;6.00;;;;;20.57;42.54;102191.03;4996815;28;45415;-70
2022/12/02 06:06:09;;;;;;;;;8.50;8.50;;;;;20.58;42.39;102197.16;4996411;28;45344;-69
2022/12/02 06:08:35;;;;;;;;;7.50;7.50;;;;;20.58;42.39;102197.16;4996986;28;45329;-69
2022/12/02 06:11:04;;;;;;;;;9.00;6.50;;;;;20.58;42.64;102199.78;4996898;28;45427;-71
2022/12/02 06:13:36;;;;;;;;;7.25;6.50;;;;;20.53;42.82;102194.91;4996688;28;48435;-69
2022/12/02 06:16:06;;;;;;;;;10.00;8.50;;;;;20.57;42.42;102192.81;4996859;28;45304;-69
2022/12/02 06:18:34;;;;;;;;;7.25;7.25;;;;;20.57;42.23;102183.09;5013636;28;45362;-71
2022/12/02 06:21:03;;;;;;;;;9.50;8.25;;;;;20.57;42.62;102175.16;5016464;28;45398;-70
2022/12/02 06:23:31;;;;;;;;;9.25;7.00;;;;;20.57;42.50;102182.25;5016296;28;47269;-71
2022/12/02 06:25:57;;;;;;;;;8.00;6.00;;;;;20.57;42.65;102185.72;5016277;28;45458;-70
2022/12/02 06:28:37;;;;;;;;;11.75;8.50;;;;;20.58;42.74;102187.38;5016502;28;45392;-70
2022/12/02 06:31:13;;;;;;;;;7.25;7.25;;;;;20.58;42.60;102187.38;5016420;28;45466;-70
2022/12/02 06:33:39;;;;;;;;;8.25;5.25;;;;;20.57;42.20;102183.09;5015686;28;46184;-70
2022/12/02 06:36:17;;;;;;;;;10.75;7.00;;;;;20.50;42.48;102174.03;5016186;28;45348;-70
2022/12/02 06:38:55;;;;;;;;;10.00;8.75;;;;;20.55;42.24;102179.75;5016189;28;45352;-70
2022/12/02 06:41:29;;;;;;;;;6.25;6.00;;;;;20.57;42.37;102179.59;5016269;28;45337;-71
2022/12/02 06:47:30;;;;;;;;;6.75;6.00;;;;;20.56;42.57;102178.75;5016168;28;45498;-70
2022/12/02 06:49:56;;;;;;;;;10.25;9.25;;;;;20.55;42.75;102179.75;5015932;28;45381;-70
2022/12/02 06:52:22;;;;;;;;;8.00;8.00;;;;;20.48;42.15;102158.28;5016135;28;45344;-70
2022/12/02 06:54:48;;;;;;;;;7.75;7.00;;;;;20.55;42.21;102168.34;5015648;28;45387;-72
2022/12/02 06:57:17;;;;;;;;;7.00;7.00;;;;;20.55;42.18;102171.81;5015795;28;45217;-71
2022/12/02 06:59:47;;;;;;;;;9.00;6.00;;;;;20.54;42.43;102179.88;5015700;28;45402;-71
2022/12/02 07:02:27;;;;;;;;;11.75;9.25;;;;;20.56;42.45;102177.91;5015548;28;45261;-74
2022/12/02 07:04:54;;;;;;;;;7.75;7.75;;;;;20.56;42.50;102178.75;5015766;28;45419;-72
2022/12/02 07:07:37;;;;;;;;;8.00;8.00;;;;;20.58;42.52;102174.16;5015642;28;45479;-72
2022/12/02 07:10:28;;;;;;;;;12.00;9.00;;;;;20.49;42.71;102151.22;5015758;28;45400;-72
2022/12/02 07:12:57;;;;;;;;;8.00;8.00;;;;;20.57;42.53;102164.56;5015700;28;45509;-72
2022/12/02 07:15:31;;;;;;;;;7.00;5.25;;;;;20.61;42.83;102167.75;5015419;28;46343;-72
2022/12/02 07:17:59;;;;;;;;;8.00;7.50;;;;;20.62;43.12;102183.50;5014944;28;45475;-72
2022/12/02 07:20:37;;;;;;;;;7.50;6.75;;;;;20.63;42.41;102173.78;5015556;28;45398;-76
2022/12/02 07:23:19;;;;;;;;;8.75;8.25;;;;;20.63;43.13;102168.47;5015791;28;45543;-71
2022/12/02 07:25:49;;;;;;;;;9.50;9.50;;;;;20.57;42.79;102164.56;5015331;28;47203;-73
2022/12/02 07:28:23;;;;;;;;;10.00;8.25;;;;;20.65;42.72;102176.25;5015470;28;45468;-72
2022/12/02 07:31:01;;;;;;;;;7.75;7.50;;;;;20.65;42.79;102165.69;5003398;28;45301;-71
2022/12/02 07:33:27;;;;;;;;;7.50;5.00;;;;;20.60;42.75;102160.81;5015219;28;45557;-72
2022/12/02 07:35:53;;;;;;;;;10.50;7.50;;;;;20.65;43.02;102166.53;5015363;28;46066;-72
2022/12/02 07:38:18;;;;;;;;;8.00;7.75;;;;;20.65;42.99;102168.34;5015156;28;45782;-72
2022/12/02 07:40:44;;;;;;;;;7.50;7.50;;;;;20.66;42.95;102162.09;5015363;28;45372;-72
2022/12/02 07:43:09;;;;;;;;;10.25;9.00;;;;;20.65;43.19;102168.34;5015273;28;45339;-72
2022/12/02 07:45:35;;;;;;;;;9.75;7.50;;;;;20.65;43.00;102161.25;5014738;28;47361;-72
2022/12/02 07:48:00;;;;;;;;;7.50;7.50;;;;;20.65;42.80;102160.41;5015444;28;45391;-71
2022/12/02 07:50:25;;;;;;;;;11.50;9.00;;;;;20.66;42.98;102164.72;5015348;28;45494;-72
2022/12/02 07:52:51;;;;;;;;;8.50;6.00;;;;;20.62;43.04;102165.00;5009279;28;45467;-73
2022/12/02 07:55:16;;;;;;;;;9.25;9.25;;;;;20.62;42.66;102164.16;5013148;28;46942;-72
2022/12/02 07:57:42;;;;;;;;;12.00;8.25;;;;;20.59;42.72;102161.78;5014251;28;45360;-72
2022/12/02 08:00:09;;;;;;;;;10.75;9.75;;;;;20.65;43.03;102166.53;5014324;28;45228;-72
2022/12/02 08:02:34;;;;;;;;;8.75;6.00;;;;;20.66;42.83;102162.09;5014413;28;45296;-72
2022/12/02 08:05:00;;;;;;;;;10.50;9.00;;;;;20.66;42.67;102167.38;5014180;28;46185;-72
2022/12/02 08:07:25;;;;;;;;;12.00;9.00;;;;;20.61;42.65;102151.91;5016005;28;45432;-73
2022/12/02 08:09:50;;;;;;;;;7.50;6.00;;;;;20.66;42.91;102165.53;5018521;28;45367;-74
2022/12/02 08:12:17;;;;;;;;;10.75;10.50;;;;;20.66;42.51;102162.09;5017681;28;45546;-73
2022/12/02 08:14:42;;;;;;;;;9.75;7.50;;;;;20.66;42.83;102167.38;5017552;28;45353;-73
2022/12/02 08:17:07;;;;;;;;;11.00;8.50;;;;;20.65;42.57;102155.94;5017574;28;45398;-72
2022/12/02 08:19:32;;;;;;;;;8.00;6.75;;;;;20.60;42.77;102158.19;5018334;28;45429;-72
2022/12/02 08:21:58;;;;;;;;;10.00;9.00;;;;;20.65;42.83;102155.94;5018191;28;45380;-72
2022/12/02 08:24:23;;;;;;;;;10.50;9.50;;;;;20.68;42.78;102162.78;5018242;28;46296;-72
2022/12/02 08:26:48;;;;;;;;;8.25;8.00;;;;;20.69;42.26;102159.97;5017942;28;45422;-73
2022/12/02 08:29:14;;;;;;;;;10.50;9.50;;;;;20.69;42.89;102164.44;5017704;28;45407;-72
2022/12/02 08:31:39;;;;;;;;;9.75;8.75;;;;;20.60;42.73;102148.44;5017957;28;45392;-73
2022/12/02 08:34:04;;;;;;;;;9.25;9.25;;;;;20.68;42.52;102158.31;5016927;28;46180;-72
2022/12/02 08:36:30;;;;;;;;;10.50;8.75;;;;;20.69;42.80;102156.50;5017829;28;45312;-72
2022/12/02 08:38:55;;;;;;;;;10.25;9.25;;;;;20.69;42.81;102154.69;5017844;28;45855;-72
2022/12/02 08:41:21;;;;;;;;;10.00;10.00;;;;;20.68;42.79;102144.25;5017971;28;45403;-73
2022/12/02 08:43:46;;;;;;;;;8.25;7.00;;;;;20.58;42.99;102125.75;5017392;28;46165;-73
2022/12/02 08:46:13;;;;;;;;;11.25;8.75;;;;;20.63;42.79;102129.63;5017669;28;45335;-73
2022/12/02 08:48:38;;;;;;;;;10.25;6.50;;;;;20.63;42.98;102134.91;5017986;28;45291;-73
2022/12/02 08:51:04;;;;;;;;;12.00;7.50;;;;;20.59;42.74;102130.88;5017736;28;45471;-72
2022/12/02 08:53:31;;;;;;;;;9.75;7.50;;;;;20.66;42.78;102144.38;5017184;28;47096;-72
2022/12/02 08:55:56;;;;;;;;;10.00;10.00;;;;;20.56;42.54;102128.53;5017616;28;45285;-72
2022/12/02 08:58:22;;;;;;;;;7.00;6.50;;;;;20.68;42.71;102145.09;5017125;28;45414;-72
2022/12/02 09:00:47;;;;;;;;;13.25;11.50;;;;;20.68;42.89;102142.47;5017462;28;45562;-73
2022/12/02 09:03:13;;;;;;;;;8.75;8.00;;;;;20.55;42.95;102120.75;5017429;28;46074;-73
2022/12/02 09:05:40;;;;;;;;;10.00;9.25;;;;;20.67;42.77;102140.78;5017244;28;45314;-73
2022/12/02 09:08:05;;;;;;;;;11.50;9.50;;;;;20.67;42.83;102143.41;5017516;28;45352;-73
2022/12/02 09:10:31;;;;;;;;;7.50;7.25;;;;;20.68;42.50;102145.09;5017330;28;45367;-73
2022/12/02 09:12:56;;;;;;;;;11.75;10.75;;;;;20.68;42.58;102137.16;5016688;28;47046;-73
2022/12/02 09:15:22;;;;;;;;;11.75;9.00;;;;;20.67;42.71;102132.84;5017432;28;45455;-73
2022/12/02 09:17:48;;;;;;;;;7.50;7.00;;;;;20.68;42.72;102145.09;4994803;28;45329;-72
2022/12/02 09:20:15;;;;;;;;;9.50;9.50;;;;;20.69;42.71;102140.63;4997399;28;45753;-72
2022/12/02 09:22:41;;;;;;;;;7.25;7.00;;;;;20.68;42.94;102129.22;4997224;28;47314;-72
2022/12/02 09:25:06;;;;;;;;;8.75;7.00;;;;;20.68;42.79;102137.16;4997254;28;45347;-72
2022/12/02 09:27:32;;;;;;;;;9.50;7.75;;;;;20.58;42.58;102109.88;4997104;28;45656;-72
2022/12/02 09:29:57;;;;;;;;;8.00;5.25;;;;;20.62;42.77;102117.41;4997266;28;45334;-71
2022/12/02 09:32:23;;;;;;;;;7.75;7.75;;;;;20.60;43.18;102114.06;4997038;28;46370;-72
2022/12/02 09:34:48;;;;;;;;;11.00;9.75;;;;;20.67;42.54;102118.78;4997241;28;45557;-72
2022/12/02 09:37:14;;;;;;;;;8.75;8.75;;;;;20.68;42.66;102112.53;4997422;28;45397;-71
2022/12/02 09:39:39;;;;;;;;;8.75;6.75;;;;;20.61;42.53;102110.44;5009286;28;45344;-71
2022/12/02 09:42:07;;;;;;;;;10.00;9.25;;;;;20.68;42.78;102116.00;5016437;28;47260;-74
2022/12/02 09:44:33;;;;;;;;;9.50;9.25;;;;;20.69;42.38;102119.47;5016923;28;45329;-73
2022/12/02 09:46:58;;;;;;;;;11.25;9.00;;;;;20.68;42.81;102131.88;5016838;28;45321;-73
2022/12/02 09:49:24;;;;;;;;;9.00;8.25;;;;;20.68;42.82;102131.03;5016806;28;45319;-71
2022/12/02 09:51:51;;;;;;;;;9.25;9.00;;;;;20.65;42.50;102123.38;5016694;28;46180;-73
2022/12/02 09:54:16;;;;;;;;;9.75;9.00;;;;;20.61;42.70;102126.28;5016422;28;45314;-73
2022/12/02 09:56:42;;;;;;;;;10.00;8.25;;;;;20.60;42.52;102114.06;5016209;28;45379;-72
2022/12/02 09:59:14;;;;;;;;;11.50;9.00;;;;;20.69;42.47;102136.19;5007171;28;45520;-74
2022/12/02 10:01:42;;;;;;;;;10.75;8.25;;;;;20.71;42.52;102130.75;4975844;28;46314;-72
2022/12/02 10:04:10;;;;;;;;;9.00;8.00;;;;;20.71;42.32;102130.75;4976944;28;45464;-73
2022/12/02 10:06:36;;;;;;;;;11.00;9.00;;;;;20.71;42.74;102133.41;4977196;28;45376;-73
2022/12/02 10:09:01;;;;;;;;;9.50;6.75;;;;;20.66;42.59;102117.94;4976925;28;45446;-73
2022/12/02 10:11:33;;;;;;;;;7.75;7.75;;;;;20.70;42.69;102119.34;4976424;28;46108;-72
2022/12/02 10:13:59;;;;;;;;;9.25;9.25;;;;;20.71;43.07;102118.34;4976982;28;45423;-73
2022/12/02 10:16:26;;;;;;;;;10.50;8.25;;;;;20.71;42.53;102112.25;4977018;28;45395;-73
2022/12/02 10:18:59;;;;;;;;;13.75;10.25;;;;;20.70;42.78;102118.50;4976613;28;45375;-72
2022/12/02 10:21:24;;;;;;;;;10.75;10.50;;;;;20.71;42.58;102118.34;4976463;28;46177;-72
2022/12/02 10:24:02;;;;;;;;;12.75;8.50;;;;;20.70;42.39;102116.69;4976759;28;45391;-73
2022/12/02 10:26:45;;;;;;;;;12.25;9.50;;;;;20.59;42.63;102104.44;4976655;28;45301;-73
2022/12/02 10:29:16;;;;;;;;;9.25;9.25;;;;;20.69;42.75;102122.94;4976341;28;45383;-73
2022/12/02 10:31:55;;;;;;;;;10.50;7.50;;;;;20.69;42.63;102116.81;4976275;28;46198;-73
2022/12/02 10:34:21;;;;;;;;;10.25;6.75;;;;;20.62;42.29;102095.41;4976340;28;45466;-73
2022/12/02 10:36:47;;;;;;;;;12.25;9.25;;;;;20.68;42.53;102101.94;4976663;28;45912;-74
2022/12/02 10:39:23;;;;;;;;;9.50;9.50;;;;;20.69;42.60;102107.09;4976658;28;45273;-73
2022/12/02 10:42:04;;;;;;;;;10.00;7.50;;;;;20.69;42.37;102100.94;4976159;28;45348;-73
2022/12/02 10:44:31;;;;;;;;;9.25;8.00;;;;;20.68;42.25;102100.16;4976187;28;45439;-73
2022/12/02 10:47:09;;;;;;;;;8.75;8.25;;;;;20.69;42.48;102108.88;4976511;28;45348;-73
2022/12/02 10:49:34;;;;;;;;;10.75;8.25;;;;;20.67;42.40;102100.25;4975052;28;45458;-73
2022/12/02 10:52:06;;;;;;;;;13.00;10.25;;;;;20.68;42.78;102094.84;4976368;28;46058;-73
2022/12/02 10:54:33;;;;;;;;;12.25;9.25;;;;;20.67;42.27;102097.63;4975781;28;45433;-73
2022/12/02 10:57:01;;;;;;;;;6.75;6.25;;;;;20.66;42.31;102091.50;4976239;28;45309;-74
2022/12/02 10:59:27;;;;;;;;;9.00;9.00;;;;;20.66;42.43;102088.84;4990416;28;45426;-73
2022/12/02 11:01:53;;;;;;;;;9.75;6.75;;;;;20.56;42.62;102075.63;5015613;28;46994;-73
2022/12/02 11:04:19;;;;;;;;;8.00;8.00;;;;;20.67;42.39;102087.88;5015565;28;45343;-72
2022/12/02 11:06:46;;;;;;;;;12.50;9.25;;;;;20.67;42.23;102073.81;5015588;28;45399;-73
2022/12/02 11:09:21;;;;;;;;;10.25;9.75;;;;;20.67;42.48;102071.19;5015241;28;45392;-73
2022/12/02 11:11:48;;;;;;;;;10.25;9.00;;;;;20.67;42.31;102071.19;5015427;28;45596;-72
2022/12/02 11:14:39;;;;;;;;;11.00;9.50;;;;;20.67;42.65;102060.59;5015294;28;45314;-74
2022/12/02 11:17:12;;;;;;;;;8.75;8.00;;;;;20.66;42.70;102059.75;5015265;28;45546;-74
2022/12/02 11:19:44;;;;;;;;;12.75;9.00;;;;;20.67;42.42;102060.59;5015170;28;45340;-72
2022/12/02 11:22:47;;;;;;;;;12.00;8.00;;;;;20.66;42.34;102051.81;5015266;28;45397;-74
2022/12/02 11:25:43;;;;;;;;;11.50;9.00;;;;;20.66;42.25;102051.81;5015285;28;45253;-73
2022/12/02 11:28:14;;;;;;;;;11.50;10.75;;;;;20.67;42.15;102042.94;5015491;28;45229;-73
2022/12/02 11:30:40;;;;;;;;;7.00;7.00;;;;;20.60;42.19;102029.44;5015305;28;45491;-73